createdAt,value
2018-06-28T00:01:15.261Z,3.80
2018-06-28T00:04:19.657Z,3.70
2018-06-28T00:07:23.272Z,4.23
2018-06-28T00:10:26.942Z,3.73
2018-06-28T00:13:30.582Z,4.10
2018-06-28T00:16:34.183Z,4.00
2018-06-28T00:19:37.635Z,4.20
2018-06-28T00:22:41.151Z,4.07
2018-06-28T00:25:44.944Z,4.03
2018-06-28T00:28:48.656Z,3.80
2018-06-28T00:31:52.274Z,3.97
2018-06-28T00:34:55.913Z,4.33
2018-06-28T00:37:59.345Z,4.43
2018-06-28T00:41:02.942Z,3.97
2018-06-28T00:44:06.550Z,4.30
2018-06-28T00:47:10.266Z,4.00
2018-06-28T00:50:13.882Z,4.40
2018-06-28T00:53:17.569Z,4.10
2018-06-28T00:56:21.223Z,4.60
2018-06-28T00:59:24.875Z,4.27
2018-06-28T01:02:28.477Z,4.50
2018-06-28T01:05:32.094Z,4.70
2018-06-28T01:08:35.851Z,4.60
2018-06-28T01:11:40.006Z,4.43
2018-06-28T01:14:43.598Z,4.43
2018-06-28T01:17:47.229Z,4.73
2018-06-28T01:20:50.849Z,4.83
2018-06-28T01:23:54.302Z,4.40
2018-06-28T01:26:57.902Z,4.70
2018-06-28T01:30:01.558Z,4.37
2018-06-28T01:33:05.221Z,5.30
2018-06-28T01:36:08.765Z,4.93
2018-06-28T01:39:12.550Z,4.67
2018-06-28T01:42:20.425Z,4.83
2018-06-28T01:45:24.127Z,4.80
2018-06-28T01:48:27.793Z,4.90
2018-06-28T01:51:31.430Z,5.27
2018-06-28T01:54:35.131Z,5.60
2018-06-28T01:57:38.827Z,4.47
2018-06-28T02:00:42.554Z,4.83
2018-06-28T02:03:46.168Z,4.73
2018-06-28T02:06:49.852Z,4.87
2018-06-28T02:09:53.464Z,5.10
2018-06-28T02:12:57.090Z,5.03
2018-06-28T02:16:01.206Z,5.23
2018-06-28T02:19:05.006Z,4.97
2018-06-28T02:22:08.602Z,5.20
2018-06-28T02:25:12.274Z,5.13
2018-06-28T02:28:15.982Z,5.00
2018-06-28T02:31:19.599Z,4.90
2018-06-28T02:34:23.200Z,5.23
2018-06-28T02:37:26.887Z,5.07
2018-06-28T02:40:30.486Z,5.20
2018-06-28T02:43:34.194Z,5.13
2018-06-28T02:46:37.799Z,5.70
2018-06-28T02:49:41.419Z,5.30
2018-06-28T02:52:45.032Z,5.80
2018-06-28T02:55:48.686Z,5.40
2018-06-28T02:58:52.285Z,5.53
2018-06-28T03:01:55.911Z,5.63
2018-06-28T03:04:59.635Z,6.00
2018-06-28T03:08:03.258Z,5.40
2018-06-28T03:11:06.729Z,5.50
2018-06-28T03:14:10.246Z,6.20
2018-06-28T03:17:13.876Z,5.67
2018-06-28T03:20:17.515Z,5.93
2018-06-28T03:23:21.114Z,5.97
2018-06-28T03:26:24.775Z,6.07
2018-06-28T03:29:28.354Z,6.10
2018-06-28T03:32:32.022Z,6.07
2018-06-28T03:35:35.744Z,6.27
2018-06-28T03:38:39.365Z,6.90
2018-06-28T03:41:42.985Z,6.63
2018-06-28T03:44:46.437Z,6.73
2018-06-28T03:47:50.033Z,6.47
2018-06-28T03:50:53.928Z,6.63
2018-06-28T03:53:57.561Z,7.23
2018-06-28T03:57:01.250Z,6.73
2018-06-28T04:00:04.886Z,6.23
2018-06-28T04:03:08.499Z,6.57
2018-06-28T04:06:12.164Z,6.10
2018-06-28T04:09:15.875Z,6.20
2018-06-28T04:12:19.552Z,6.60
2018-06-28T04:15:23.174Z,6.10
2018-06-28T04:18:26.880Z,6.23
2018-06-28T04:21:30.513Z,6.50
2018-06-28T04:24:34.183Z,6.03
2018-06-28T04:27:37.955Z,6.60
2018-06-28T04:30:41.613Z,6.30
2018-06-28T04:33:45.217Z,6.47
2018-06-28T04:36:48.896Z,6.43
2018-06-28T04:39:52.507Z,6.20
2018-06-28T04:42:56.121Z,5.83
2018-06-28T04:45:59.824Z,5.70
2018-06-28T04:49:03.466Z,5.73
2018-06-28T04:52:07.105Z,5.87
2018-06-28T04:55:10.723Z,6.03
2018-06-28T04:58:14.339Z,6.03
2018-06-28T05:01:18.024Z,5.23
2018-06-28T05:04:21.613Z,5.17
2018-06-28T05:07:25.248Z,5.97
2018-06-28T05:10:28.860Z,5.28
2018-06-28T05:13:32.480Z,5.37
2018-06-28T05:16:36.345Z,5.33
2018-06-28T05:19:39.875Z,5.25
2018-06-28T05:22:43.405Z,5.53
2018-06-28T05:25:46.945Z,6.97
2018-06-28T05:28:50.563Z,5.17
2018-06-28T05:31:54.214Z,6.87
2018-06-28T05:34:57.869Z,5.28
2018-06-28T05:38:01.511Z,6.10
2018-06-28T05:41:05.174Z,5.22
2018-06-28T05:44:08.790Z,5.15
2018-06-28T05:47:12.509Z,5.50
2018-06-28T05:50:16.017Z,4.50
2018-06-28T05:53:19.704Z,4.80
2018-06-28T05:56:23.410Z,5.03
2018-06-28T05:59:27.003Z,4.58
2018-06-28T06:02:30.456Z,4.85
2018-06-28T06:05:33.982Z,4.65
2018-06-28T06:08:37.615Z,4.55
2018-06-28T06:11:41.130Z,4.65
2018-06-28T06:14:44.703Z,4.10
2018-06-28T06:17:48.126Z,4.80
2018-06-28T06:20:51.668Z,4.33
2018-06-28T06:23:55.284Z,4.17
2018-06-28T06:26:58.938Z,4.37
2018-06-28T06:30:02.633Z,4.35
2018-06-28T06:33:06.420Z,4.47
2018-06-28T06:36:10.132Z,4.20
2018-06-28T06:39:13.774Z,4.00
2018-06-28T06:42:17.578Z,4.15
2018-06-28T06:45:21.215Z,3.58
2018-06-28T06:48:24.820Z,4.33
2018-06-28T06:51:28.525Z,4.30
2018-06-28T06:54:32.127Z,3.83
2018-06-28T06:57:35.761Z,3.85
2018-06-28T07:00:39.165Z,3.83
2018-06-28T07:03:42.798Z,3.70
2018-06-28T07:06:46.554Z,3.80
2018-06-28T07:09:56.523Z,3.70
2018-06-28T07:13:00.118Z,3.55
2018-06-28T07:16:03.840Z,3.45
2018-06-28T07:19:07.666Z,3.85
2018-06-28T07:22:11.304Z,3.60
2018-06-28T07:25:14.919Z,3.87
2018-06-28T07:28:18.420Z,3.58
2018-06-28T07:31:23.403Z,3.98
2018-06-28T07:34:27.050Z,3.52
2018-06-28T07:37:30.489Z,3.65
2018-06-28T07:40:34.159Z,3.30
2018-06-28T07:43:37.748Z,4.00
2018-06-28T07:46:41.515Z,3.80
2018-06-28T07:49:45.116Z,3.35
2018-06-28T07:52:48.754Z,3.37
2018-06-28T07:55:52.528Z,3.50
2018-06-28T07:58:56.149Z,3.67
2018-06-28T08:01:59.830Z,3.60
2018-06-28T08:05:03.589Z,3.80
2018-06-28T08:08:07.415Z,3.50
2018-06-28T08:11:11.150Z,3.30
2018-06-28T08:14:14.826Z,3.45
2018-06-28T08:17:18.446Z,3.33
2018-06-28T08:20:22.160Z,3.20
2018-06-28T08:23:25.873Z,3.00
2018-06-28T08:26:29.574Z,3.35
2018-06-28T08:29:33.210Z,2.92
2018-06-28T08:32:36.941Z,3.33
2018-06-28T08:35:40.574Z,3.52
2018-06-28T08:38:44.187Z,3.10
2018-06-28T08:41:47.886Z,3.35
2018-06-28T08:44:51.573Z,3.15
2018-06-28T08:47:55.338Z,3.20
2018-06-28T08:50:58.914Z,3.40
2018-06-28T08:54:02.806Z,3.37
2018-06-28T08:57:06.610Z,3.02
2018-06-28T09:00:17.174Z,3.17
2018-06-28T09:03:20.948Z,2.80
2018-06-28T09:06:24.589Z,2.70
2018-06-28T09:09:28.233Z,3.02
2018-06-28T09:12:31.834Z,2.60
2018-06-28T09:15:35.308Z,2.83
2018-06-28T09:18:38.842Z,3.17
2018-06-28T09:21:42.454Z,2.83
2018-06-28T09:24:46.083Z,2.62
2018-06-28T09:27:49.696Z,2.80
2018-06-28T09:30:53.326Z,2.55
2018-06-28T09:33:56.927Z,3.00
2018-06-28T09:37:00.582Z,2.90
2018-06-28T09:40:04.213Z,3.40
2018-06-28T09:43:07.897Z,2.80
2018-06-28T09:46:11.606Z,2.77
2018-06-28T09:49:15.252Z,3.22
2018-06-28T09:52:18.669Z,2.67
2018-06-28T09:55:22.216Z,2.87
2018-06-28T09:58:25.897Z,2.52
2018-06-28T10:01:29.527Z,2.92
2018-06-28T10:04:33.131Z,2.83
2018-06-28T10:07:37.967Z,2.95
2018-06-28T10:10:41.612Z,3.10
2018-06-28T10:13:45.277Z,3.00
2018-06-28T10:16:48.887Z,2.95
2018-06-28T10:19:52.586Z,3.75
2018-06-28T10:22:56.211Z,2.98
2018-06-28T10:25:59.676Z,2.90
2018-06-28T10:29:03.196Z,2.90
2018-06-28T10:35:16.793Z,2.62
2018-06-28T10:38:20.459Z,3.08
2018-06-28T10:41:24.105Z,2.62
2018-06-28T10:44:27.829Z,3.00
2018-06-28T10:47:31.477Z,2.95
2018-06-28T10:50:35.068Z,3.02
2018-06-28T10:53:38.708Z,2.80
2018-06-28T10:56:42.360Z,3.02
2018-06-28T10:59:46.021Z,3.02
2018-06-28T11:02:49.632Z,2.90
2018-06-28T11:05:53.263Z,2.95
2018-06-28T11:08:56.905Z,2.90
2018-06-28T11:12:00.522Z,3.00
2018-06-28T11:15:04.601Z,2.77
2018-06-28T11:18:08.036Z,3.00
2018-06-28T11:21:11.597Z,3.05
2018-06-28T11:24:15.199Z,3.40
2018-06-28T11:27:18.835Z,2.92
2018-06-28T11:30:22.505Z,3.00
2018-06-28T11:33:26.106Z,2.85
2018-06-28T11:36:29.534Z,2.70
2018-06-28T11:39:33.075Z,2.80
2018-06-28T11:42:36.817Z,2.72
2018-06-28T11:45:40.402Z,2.55
2018-06-28T11:48:45.445Z,2.27
2018-06-28T11:51:49.046Z,2.30
2018-06-28T11:54:52.623Z,2.67
2018-06-28T11:57:56.514Z,2.90
2018-06-28T12:01:00.248Z,2.70
2018-06-28T12:04:03.870Z,2.90
2018-06-28T12:07:07.567Z,4.00
2018-06-28T12:10:11.173Z,3.55
2018-06-28T12:13:14.783Z,2.80
2018-06-28T12:16:18.614Z,4.97
2018-06-28T12:19:22.561Z,3.70
2018-06-28T12:22:26.242Z,3.55
2018-06-28T12:25:29.837Z,2.47
2018-06-28T12:28:33.507Z,2.90
2018-06-28T12:31:37.151Z,2.55
2018-06-28T12:34:40.877Z,2.72
2018-06-28T12:37:44.493Z,2.65
2018-06-28T12:40:48.130Z,3.30
2018-06-28T12:43:51.753Z,2.72
2018-06-28T12:49:04.334Z,2.60
2018-06-28T12:52:19.513Z,2.50
2018-06-28T12:55:23.734Z,2.67
2018-06-28T12:58:27.413Z,2.70
2018-06-28T13:01:31.329Z,2.30
2018-06-28T13:04:34.833Z,2.62
2018-06-28T13:07:38.534Z,2.58
2018-06-28T13:10:42.122Z,2.75
2018-06-28T13:13:45.778Z,2.87
2018-06-28T13:16:49.389Z,2.58
2018-06-28T13:19:53.021Z,2.40
2018-06-28T13:22:56.626Z,2.50
2018-06-28T13:26:00.272Z,2.62
2018-06-28T13:29:03.888Z,2.75
2018-06-28T13:32:07.517Z,2.25
2018-06-28T13:35:11.246Z,3.33
2018-06-28T13:38:15.060Z,2.98
2018-06-28T13:41:18.860Z,2.77
2018-06-28T13:44:22.324Z,2.77
2018-06-28T13:47:25.944Z,2.37
2018-06-28T13:50:29.589Z,2.80
2018-06-28T13:53:33.206Z,2.02
2018-06-28T13:56:36.846Z,2.65
2018-06-28T13:59:40.581Z,2.37
2018-06-28T14:02:44.199Z,2.72
2018-06-28T14:05:47.813Z,2.45
2018-06-28T14:08:51.468Z,2.55
2018-06-28T14:11:55.092Z,2.60
2018-06-28T14:14:58.600Z,2.42
2018-06-28T14:18:02.143Z,2.62
2018-06-28T14:21:05.818Z,2.80
2018-06-28T14:24:09.458Z,2.30
2018-06-28T14:27:13.142Z,2.45
2018-06-28T14:30:16.799Z,2.65
2018-06-28T14:33:20.244Z,3.10
2018-06-28T14:36:23.758Z,2.70
2018-06-28T14:39:27.516Z,2.75
2018-06-28T14:42:31.136Z,2.70
2018-06-28T14:45:34.870Z,2.70
2018-06-28T14:48:38.473Z,2.80
2018-06-28T14:51:42.271Z,2.90
2018-06-28T14:54:45.877Z,3.10
2018-06-28T14:57:49.524Z,3.20
2018-06-28T15:00:53.023Z,3.10
2018-06-28T15:03:56.632Z,3.30
2018-06-28T15:07:00.213Z,2.90
2018-06-28T15:10:03.683Z,3.20
2018-06-28T15:13:07.237Z,2.85
2018-06-28T15:16:10.885Z,2.70
2018-06-28T15:19:14.635Z,3.20
2018-06-28T15:22:18.093Z,3.00
2018-06-28T15:25:21.613Z,2.75
2018-06-28T15:28:25.262Z,2.70
2018-06-28T15:31:28.933Z,3.00
2018-06-28T15:34:32.536Z,2.92
2018-06-28T15:37:35.945Z,2.40
2018-06-28T15:40:39.477Z,2.55
2018-06-28T15:43:43.091Z,2.58
2018-06-28T15:46:46.718Z,2.70
2018-06-28T15:49:50.321Z,2.60
2018-06-28T15:52:53.983Z,3.10
2018-06-28T15:55:57.642Z,2.80
2018-06-28T15:59:01.244Z,2.80
2018-06-28T16:02:04.886Z,2.50
2018-06-28T16:05:08.486Z,2.75
2018-06-28T16:08:17.168Z,2.90
2018-06-28T16:11:20.778Z,2.90
2018-06-28T16:14:24.386Z,3.30
2018-06-28T16:17:28.074Z,3.00
2018-06-28T16:20:31.780Z,3.37
2018-06-28T16:23:35.658Z,4.12
2018-06-28T16:26:39.330Z,2.80
2018-06-28T16:29:42.965Z,3.72
2018-06-28T16:32:47.566Z,3.08
2018-06-28T16:35:51.219Z,3.27
2018-06-28T16:38:54.824Z,2.62
2018-06-28T16:41:58.258Z,2.98
2018-06-28T16:45:01.866Z,2.87
2018-06-28T16:48:05.632Z,2.55
2018-06-28T16:51:09.374Z,2.87
2018-06-28T16:54:12.987Z,2.70
2018-06-28T16:57:16.636Z,2.67
2018-06-28T17:00:21.062Z,4.47
2018-06-28T17:03:25.151Z,2.72
2018-06-28T17:06:28.789Z,2.90
2018-06-28T17:09:32.445Z,2.65
2018-06-28T17:12:36.279Z,2.40
2018-06-28T17:15:39.696Z,2.50
2018-06-28T17:18:43.258Z,2.65
2018-06-28T17:21:46.932Z,2.70
2018-06-28T17:24:50.484Z,2.52
2018-06-28T17:27:53.981Z,4.03
2018-06-28T17:30:57.557Z,2.80
2018-06-28T17:34:01.123Z,2.77
2018-06-28T17:37:04.744Z,2.30
2018-06-28T17:40:08.393Z,3.08
2018-06-28T17:43:11.869Z,3.10
2018-06-28T17:46:15.207Z,2.72
2018-06-28T17:49:18.733Z,2.95
2018-06-28T17:52:22.421Z,2.95
2018-06-28T17:55:26.109Z,2.62
2018-06-28T17:58:29.749Z,3.00
2018-06-28T18:01:33.369Z,3.40
2018-06-28T18:04:37.046Z,3.12
2018-06-28T18:07:40.963Z,2.80
2018-06-28T18:10:44.579Z,2.98
2018-06-28T18:13:48.201Z,2.80
2018-06-28T18:16:51.777Z,3.75
2018-06-28T18:19:55.314Z,3.40
2018-06-28T18:22:58.922Z,3.50
2018-06-28T18:26:02.667Z,3.95
2018-06-28T18:29:06.277Z,2.83
2018-06-28T18:32:09.976Z,5.47
2018-06-28T18:35:13.583Z,3.40
2018-06-28T18:38:17.224Z,2.90
2018-06-28T18:41:20.808Z,2.90
2018-06-28T18:44:24.485Z,3.65
2018-06-28T18:47:28.135Z,3.47
2018-06-28T18:50:31.825Z,2.98
2018-06-28T18:53:35.995Z,3.22
2018-06-28T18:56:39.645Z,3.27
2018-06-28T18:59:43.231Z,2.75
2018-06-28T19:02:46.766Z,2.80
2018-06-28T19:05:50.416Z,3.08
2018-06-28T19:08:54.119Z,3.00
2018-06-28T19:11:57.719Z,6.33
2018-06-28T19:15:06.828Z,4.03
2018-06-28T19:18:10.410Z,3.10
2018-06-28T19:21:19.723Z,4.75
2018-06-28T19:24:23.497Z,3.00
2018-06-28T19:27:27.182Z,2.70
2018-06-28T19:30:36.287Z,4.12
2018-06-28T19:33:39.767Z,2.77
2018-06-28T19:36:43.326Z,3.50
2018-06-28T19:39:52.415Z,3.60
2018-06-28T19:42:59.121Z,2.50
2018-06-28T19:46:02.776Z,3.00
2018-06-28T19:49:18.555Z,3.30
2018-06-28T19:52:27.664Z,2.85
2018-06-28T19:55:31.406Z,3.60
2018-06-28T19:58:35.037Z,2.80
2018-06-28T20:01:44.151Z,3.02
2018-06-28T20:04:47.938Z,3.58
2018-06-28T20:07:51.591Z,3.20
2018-06-28T20:10:55.207Z,2.83
2018-06-28T20:14:04.265Z,3.95
2018-06-28T20:17:13.425Z,3.27
2018-06-28T20:20:19.062Z,2.60
2018-06-28T20:23:22.750Z,3.52
2018-06-28T20:26:31.762Z,3.02
2018-06-28T20:29:41.199Z,4.80
2018-06-28T20:32:50.275Z,3.22
2018-06-28T20:35:54.032Z,2.90
2018-06-28T20:38:57.485Z,4.08
2018-06-28T20:42:01.031Z,3.15
2018-06-28T20:45:04.839Z,3.10
2018-06-28T20:48:09.062Z,3.00
2018-06-28T20:51:12.810Z,2.90
2018-06-28T20:54:16.286Z,3.70
2018-06-28T20:57:19.777Z,3.05
2018-06-28T21:00:24.100Z,2.80
2018-06-28T21:03:27.527Z,3.17
2018-06-28T21:06:31.052Z,3.03
2018-06-28T21:09:34.673Z,3.50
2018-06-28T21:12:38.322Z,3.23
2018-06-28T21:15:41.979Z,2.90
2018-06-28T21:18:45.654Z,2.47
2018-06-28T21:21:49.269Z,3.10
2018-06-28T21:24:52.917Z,3.10
2018-06-28T21:27:56.530Z,3.30
2018-06-28T21:31:00.195Z,3.00
2018-06-28T21:34:03.869Z,2.90
2018-06-28T21:37:07.806Z,3.10
2018-06-28T21:40:11.418Z,2.80
2018-06-28T21:43:15.045Z,3.10
2018-06-28T21:46:18.742Z,2.90
2018-06-28T21:49:22.366Z,3.23
2018-06-28T21:52:25.990Z,2.80
2018-06-28T21:55:29.715Z,3.07
2018-06-28T21:58:33.331Z,3.00
2018-06-28T22:01:37.099Z,3.00
2018-06-28T22:04:40.719Z,3.13
2018-06-28T22:07:44.408Z,3.43
2018-06-28T22:10:47.962Z,3.30
2018-06-28T22:13:51.519Z,3.20
2018-06-28T22:16:55.044Z,3.10
2018-06-28T22:19:58.677Z,3.30
2018-06-28T22:23:02.293Z,3.40
2018-06-28T22:26:05.999Z,3.13
2018-06-28T22:29:09.535Z,3.50
2018-06-28T22:32:13.168Z,3.70
2018-06-28T22:35:16.774Z,3.50
2018-06-28T22:38:20.221Z,3.47
2018-06-28T22:41:23.802Z,4.23
2018-06-28T22:44:27.442Z,3.17
2018-06-28T22:47:31.097Z,3.27
2018-06-28T22:50:34.752Z,3.50
2018-06-28T22:53:38.386Z,3.50
2018-06-28T22:56:41.997Z,3.20
2018-06-28T22:59:45.635Z,3.50
2018-06-28T23:02:49.272Z,3.63
2018-06-28T23:05:52.887Z,4.10
2018-06-28T23:08:56.346Z,3.73
2018-06-28T23:11:59.872Z,3.67
2018-06-28T23:15:03.496Z,3.73
2018-06-28T23:18:07.097Z,3.60
2018-06-28T23:21:10.538Z,3.20
2018-06-28T23:24:14.085Z,3.83
2018-06-28T23:27:17.734Z,3.13
2018-06-28T23:30:21.338Z,3.60
2018-06-28T23:33:25.009Z,3.70
2018-06-28T23:36:28.617Z,3.17
2018-06-28T23:39:32.245Z,3.40
2018-06-28T23:42:36.674Z,3.17
2018-06-28T23:45:40.346Z,3.60
2018-06-28T23:48:43.949Z,3.80
2018-06-28T23:51:47.588Z,3.40
2018-06-28T23:54:51.211Z,3.73
2018-06-28T23:57:54.829Z,3.23
